Time;durP1;ratioP1;P1;durP2;ratioP2;P2;SDS_P1;SDS_P2;PMS_P1;PMS_P2;Temp;Humidity;BMP_temperature;BMP_pressure;BME280_temperature;BME280_humidity;BME280_pressure;Samples;Min_cycle;Max_cycle;Signal;HPM_P1;HPM_P2
2024/03/08 00:01:40;;;;;;;25.30;16.37;;;;;;;3.43;73.41;96085.25;4990188;28;20184;-71
2024/03/08 00:04:06;;;;;;;23.33;17.03;;;;;;;3.53;73.09;96084.16;4989804;28;20208;-71
2024/03/08 00:06:32;;;;;;;21.27;15.27;;;;;;;3.38;73.59;96082.75;4989644;28;20183;-71
2024/03/08 00:08:57;;;;;;;27.00;16.80;;;;;;;2.66;76.03;96087.56;4989312;28;20564;-71
2024/03/08 00:11:25;;;;;;;25.13;17.40;;;;;;;2.75;76.16;96083.97;4988876;28;20420;-71
2024/03/08 00:13:54;;;;;;;31.83;17.10;;;;;;;2.86;75.55;96079.44;4988757;28;20193;-71
2024/03/08 00:16:19;;;;;;;20.50;17.40;;;;;;;3.03;74.82;96080.88;4988967;28;20416;-71
2024/03/08 00:18:45;;;;;;;25.97;17.70;;;;;;;2.94;74.77;96077.56;4988841;28;20443;-71
2024/03/08 00:21:11;;;;;;;25.30;18.10;;;;;;;3.11;74.49;96084.16;4988642;28;20172;-71
2024/03/08 00:23:37;;;;;;;22.30;16.30;;;;;;;3.00;74.52;96086.09;4988482;28;20208;-71
2024/03/08 00:26:04;;;;;;;28.23;17.60;;;;;;;2.85;75.31;96079.47;4988988;28;20451;-72
2024/03/08 00:28:30;;;;;;;24.23;16.50;;;;;;;3.08;74.44;96073.84;4988613;28;20176;-71
2024/03/08 00:30:56;;;;;;;22.13;15.23;;;;;;;2.68;75.49;96078.03;4988431;28;20503;-71
2024/03/08 00:33:21;;;;;;;21.93;16.17;;;;;;;2.95;74.72;96060.25;4988532;28;20504;-70
2024/03/08 00:35:47;;;;;;;24.17;15.53;;;;;;;3.09;73.91;96058.25;4988535;28;20181;-71
2024/03/08 00:38:13;;;;;;;20.53;17.03;;;;;;;2.90;73.80;96062.09;4988540;28;20180;-70
2024/03/08 00:40:40;;;;;;;24.80;17.00;;;;;;;3.03;74.08;96060.13;4988946;28;20169;-72
2024/03/08 00:43:06;;;;;;;24.00;17.43;;;;;;;2.79;74.36;96064.91;4988213;28;20185;-69
2024/03/08 00:45:31;;;;;;;28.03;16.57;;;;;;;2.52;75.89;96069.69;4988439;28;20432;-71
2024/03/08 00:47:57;;;;;;;24.60;17.20;;;;;;;2.77;75.40;96061.47;4988419;28;20180;-72
2024/03/08 00:50:22;;;;;;;23.57;17.07;;;;;;;3.03;74.03;96055.78;4988105;28;20181;-70
2024/03/08 00:52:48;;;;;;;28.30;18.63;;;;;;;3.01;73.71;96060.16;4988110;28;20613;-70
2024/03/08 00:55:13;;;;;;;24.33;17.13;;;;;;;3.16;73.18;96051.19;4988144;28;20203;-71
2024/03/08 00:57:38;;;;;;;25.90;20.33;;;;;;;2.88;74.01;96048.28;4988557;28;20500;-71
2024/03/08 01:00:11;;;;;;;26.57;17.63;;;;;;;2.16;76.22;96047.03;4988312;28;20165;-70
2024/03/08 01:02:38;;;;;;;24.77;17.10;;;;;;;1.99;77.85;96049.88;4987553;28;20173;-71
2024/03/08 01:05:06;;;;;;;24.80;17.87;;;;;;;2.36;77.18;96036.31;4988552;28;20474;-71
2024/03/08 01:07:31;;;;;;;28.33;17.60;;;;;;;2.61;75.89;96037.59;4989475;28;20440;-71
2024/03/08 01:09:57;;;;;;;27.03;17.90;;;;;;;2.75;74.59;96025.22;4989320;28;20733;-71
2024/03/08 01:12:22;;;;;;;25.23;17.40;;;;;;;2.79;74.45;96027.75;4988560;28;20832;-70
2024/03/08 01:14:48;;;;;;;25.50;15.80;;;;;;;2.52;74.79;96037.75;4988766;28;20691;-70
2024/03/08 01:17:13;;;;;;;26.30;19.10;;;;;;;2.72;74.50;96022.69;4989442;28;20256;-71
2024/03/08 01:19:38;;;;;;;23.90;16.13;;;;;;;2.68;74.24;96039.19;4989072;28;20173;-70
2024/03/08 01:22:04;;;;;;;30.83;18.10;;;;;;;2.47;75.36;96030.06;4989479;28;20173;-70
2024/03/08 01:24:29;;;;;;;28.73;16.90;;;;;;;2.55;75.47;96032.50;4988861;28;20211;-70
2024/03/08 01:26:55;;;;;;;26.50;18.13;;;;;;;2.30;76.02;96032.97;4989490;28;20188;-71
2024/03/08 01:29:20;;;;;;;26.87;16.83;;;;;;;2.07;77.04;96025.56;4988810;28;20857;-71
2024/03/08 01:31:45;;;;;;;23.60;18.03;;;;;;;1.98;77.42;96020.53;4989242;28;20545;-71
2024/03/08 01:34:11;;;;;;;26.83;17.70;;;;;;;2.39;76.03;96019.00;4988353;28;20252;-70
2024/03/08 01:36:37;;;;;;;27.17;16.20;;;;;;;2.60;74.95;96015.16;4988479;28;20207;-71
2024/03/08 01:39:07;;;;;;;24.30;18.00;;;;;;;2.61;74.90;96010.84;4989251;28;20176;-71
2024/03/08 01:41:36;;;;;;;24.77;17.23;;;;;;;2.42;75.12;96012.91;4988452;28;20454;-71
2024/03/08 01:44:02;;;;;;;23.23;16.63;;;;;;;2.00;76.72;96017.94;4988845;28;20471;-70
2024/03/08 01:46:28;;;;;;;27.47;19.50;;;;;;;2.25;76.06;96011.47;4988824;28;20495;-71
2024/03/08 01:48:55;;;;;;;28.47;18.87;;;;;;;2.50;75.78;95998.94;4988831;28;20434;-69
2024/03/08 01:51:20;;;;;;;23.47;16.27;;;;;;;2.29;75.20;96000.19;4970924;28;20918;-71
2024/03/08 01:53:47;;;;;;;23.77;17.43;;;;;;;2.62;74.82;95996.97;4988506;28;20444;-70
2024/03/08 01:56:13;;;;;;;24.30;16.97;;;;;;;2.75;74.15;95993.28;4988612;28;20169;-70
2024/03/08 01:58:42;;;;;;;22.50;16.00;;;;;;;2.63;74.38;95990.94;4987997;28;20418;-71
2024/03/08 02:01:09;;;;;;;24.30;17.00;;;;;;;2.54;74.59;95986.78;4987535;28;20864;-70
2024/03/08 02:03:34;;;;;;;23.83;16.53;;;;;;;2.30;75.07;95983.75;4987638;28;20691;-70
2024/03/08 02:05:59;;;;;;;24.80;16.47;;;;;;;2.11;76.27;95984.97;4988376;28;20507;-70
2024/03/08 02:08:25;;;;;;;22.70;15.70;;;;;;;1.92;77.42;95983.59;4988493;28;20180;-70
2024/03/08 02:10:50;;;;;;;24.53;15.43;;;;;;;2.27;75.83;95982.97;4987657;28;20196;-70
2024/03/08 02:13:16;;;;;;;29.83;17.70;;;;;;;2.16;76.01;95970.22;4987174;28;20176;-69
2024/03/08 02:16:00;;;;;;;25.53;17.80;;;;;;;2.13;75.42;95972.88;4988397;28;20180;-71
2024/03/08 02:18:27;;;;;;;27.53;17.70;;;;;;;2.34;75.68;95958.69;4987759;28;20181;-70
2024/03/08 02:20:53;;;;;;;23.00;17.87;;;;;;;2.46;74.40;95963.63;4987978;28;20420;-70
2024/03/08 02:23:20;;;;;;;26.83;16.30;;;;;;;2.39;74.89;95962.03;4987642;28;20416;-72
2024/03/08 02:25:46;;;;;;;27.43;16.60;;;;;;;2.39;74.82;95956.00;4988039;28;20447;-71
2024/03/08 02:28:12;;;;;;;25.17;16.20;;;;;;;2.07;75.70;95958.28;4987899;28;20420;-69
2024/03/08 02:30:38;;;;;;;26.50;17.03;;;;;;;2.30;75.25;95955.28;4988804;28;20511;-71
2024/03/08 02:33:04;;;;;;;22.70;16.33;;;;;;;2.00;75.93;95950.66;4992561;28;20501;-70
2024/03/08 02:35:30;;;;;;;22.80;16.30;;;;;;;2.30;75.17;95952.69;4990706;28;20963;-71
2024/03/08 02:37:55;;;;;;;23.23;14.80;;;;;;;2.13;75.76;95954.75;4991826;28;20420;-71
2024/03/08 02:40:21;;;;;;;25.60;18.17;;;;;;;2.01;76.25;95960.13;4992904;28;20651;-70
2024/03/08 02:42:47;;;;;;;25.90;17.20;;;;;;;1.50;77.64;95952.34;4992407;28;20177;-72
2024/03/08 02:45:13;;;;;;;25.53;17.97;;;;;;;1.25;79.57;95951.00;4993781;28;20467;-71
2024/03/08 02:47:39;;;;;;;26.97;16.30;;;;;;;1.76;77.73;95947.63;4993653;28;20180;-72
2024/03/08 02:50:07;;;;;;;21.73;15.37;;;;;;;1.82;77.28;95938.88;4993537;28;20204;-70
2024/03/08 02:52:33;;;;;;;24.17;17.13;;;;;;;2.11;75.92;95933.22;4989281;28;20855;-70
2024/03/08 02:54:59;;;;;;;29.17;17.73;;;;;;;2.27;75.57;95939.81;4988388;28;20483;-70
2024/03/08 02:57:24;;;;;;;29.67;17.70;;;;;;;1.78;76.85;95940.69;4987539;28;20525;-70
2024/03/08 02:59:50;;;;;;;25.17;17.03;;;;;;;2.07;75.69;95944.50;4987070;28;20181;-71
2024/03/08 03:02:16;;;;;;;25.70;16.53;;;;;;;2.04;76.16;95935.06;4969152;28;20184;-69
2024/03/08 03:04:42;;;;;;;22.73;16.20;;;;;;;2.14;75.45;95938.31;4986227;28;20213;-71
2024/03/08 03:07:07;;;;;;;28.47;17.37;;;;;;;2.26;75.08;95935.50;4986267;28;20420;-71
2024/03/08 03:09:32;;;;;;;25.80;18.03;;;;;;;2.18;74.43;95931.38;4986060;28;20204;-71
2024/03/08 03:12:01;;;;;;;27.30;16.00;;;;;;;2.28;74.69;95936.34;4985871;28;20176;-70
2024/03/08 03:14:27;;;;;;;23.40;16.50;;;;;;;2.26;74.37;95927.72;4985977;28;20192;-70
2024/03/08 03:16:52;;;;;;;25.37;16.60;;;;;;;2.36;74.53;95922.38;4986170;28;21210;-71
2024/03/08 03:19:18;;;;;;;25.73;16.90;;;;;;;2.31;74.65;95923.31;4986285;28;20423;-71
2024/03/08 03:21:43;;;;;;;24.27;15.23;;;;;;;2.06;75.17;95920.34;4986027;28;20253;-71
2024/03/08 03:24:12;;;;;;;23.53;16.37;;;;;;;1.85;76.25;95924.19;4986689;28;20291;-71
2024/03/08 03:26:40;;;;;;;27.10;16.97;;;;;;;2.06;75.59;95922.94;4990790;28;20199;-71
2024/03/08 03:29:08;;;;;;;25.73;17.50;;;;;;;2.25;74.89;95914.84;4990220;28;20423;-71
2024/03/08 03:31:36;;;;;;;27.50;17.37;;;;;;;2.13;74.94;95918.50;4990005;28;20413;-70
2024/03/08 03:34:03;;;;;;;22.80;17.07;;;;;;;2.08;75.20;95916.00;4989605;28;20431;-70
2024/03/08 03:36:29;;;;;;;26.37;16.47;;;;;;;2.26;74.86;95908.75;4989715;28;20440;-71
2024/03/08 03:39:10;;;;;;;27.03;16.50;;;;;;;2.25;74.51;95907.91;4989896;28;20423;-72
2024/03/08 03:41:36;;;;;;;21.03;15.33;;;;;;;2.39;74.22;95912.84;4972173;28;20427;-69
2024/03/08 03:44:02;;;;;;;21.70;16.00;;;;;;;2.09;74.92;95909.94;4990480;28;20499;-69
2024/03/08 03:46:27;;;;;;;23.17;16.53;;;;;;;1.84;75.75;95909.53;4990170;28;20947;-69
2024/03/08 03:48:55;;;;;;;22.97;15.33;;;;;;;2.07;75.29;95903.94;4990574;28;20177;-70
2024/03/08 03:51:21;;;;;;;24.40;16.33;;;;;;;2.00;75.34;95910.09;4991956;28;20176;-71
2024/03/08 03:53:46;;;;;;;20.60;15.87;;;;;;;2.36;74.31;95912.88;4992172;28;21002;-70
2024/03/08 03:56:12;;;;;;;24.77;15.67;;;;;;;2.39;74.13;95917.16;4989131;28;20427;-70
2024/03/08 03:58:37;;;;;;;22.67;15.90;;;;;;;2.52;73.68;95901.31;4989314;28;20551;-71
2024/03/08 04:01:04;;;;;;;24.97;15.70;;;;;;;2.21;74.06;95908.84;4968438;28;20669;-70
2024/03/08 04:03:30;;;;;;;25.77;16.27;;;;;;;2.27;74.21;95900.97;4970102;28;20664;-71
2024/03/08 04:05:55;;;;;;;29.43;17.80;;;;;;;2.41;74.05;95910.19;4970386;28;20417;-71
2024/03/08 04:08:21;;;;;;;20.20;15.67;;;;;;;2.36;73.87;95901.66;4970797;28;20173;-70
2024/03/08 04:10:46;;;;;;;23.13;15.87;;;;;;;2.55;73.42;95897.81;4969852;28;20267;-71
2024/03/08 04:13:11;;;;;;;21.13;15.50;;;;;;;2.41;73.82;95899.84;4969914;28;20184;-69
2024/03/08 04:15:37;;;;;;;24.03;15.70;;;;;;;2.28;74.25;95905.25;4970013;28;20196;-70
2024/03/08 04:18:03;;;;;;;17.23;15.47;;;;;;;2.15;74.49;95901.22;4970109;28;20189;-71
2024/03/08 04:20:29;;;;;;;23.57;16.67;;;;;;;2.17;74.80;95896.84;4969816;28;20169;-70
2024/03/08 04:22:54;;;;;;;26.43;16.07;;;;;;;2.31;74.12;95897.44;4969495;28;20417;-71
2024/03/08 04:25:21;;;;;;;23.17;15.50;;;;;;;2.26;74.30;95896.66;4968270;28;20293;-68
2024/03/08 04:27:47;;;;;;;25.83;15.77;;;;;;;2.43;74.01;95892.91;4969919;28;20618;-70
2024/03/08 04:30:12;;;;;;;25.13;17.37;;;;;;;2.19;73.96;95889.91;4969678;28;20432;-70
2024/03/08 04:32:38;;;;;;;26.10;16.80;;;;;;;2.36;73.76;95889.56;4952423;28;20881;-69
2024/03/08 04:35:03;;;;;;;25.47;16.50;;;;;;;1.83;75.57;95889.72;4970897;28;20201;-70
2024/03/08 04:37:32;;;;;;;26.20;16.40;;;;;;;2.22;74.81;95878.63;4968477;28;20178;-70
2024/03/08 04:39:58;;;;;;;24.37;16.43;;;;;;;2.12;75.26;95878.81;4970448;28;20189;-70
2024/03/08 04:42:25;;;;;;;23.60;16.90;;;;;;;2.16;74.95;95873.59;4973737;28;20492;-69
2024/03/08 04:44:50;;;;;;;24.33;15.33;;;;;;;2.30;74.58;95876.75;4976284;28;20885;-72
2024/03/08 04:47:17;;;;;;;23.40;15.50;;;;;;;2.37;74.69;95880.94;4972075;28;20527;-70
2024/03/08 04:49:43;;;;;;;21.60;16.40;;;;;;;2.05;75.14;95878.97;4969828;28;20169;-69
2024/03/08 04:52:08;;;;;;;26.60;17.47;;;;;;;1.50;77.05;95879.97;4968754;28;20420;-70
2024/03/08 04:54:34;;;;;;;24.07;17.07;;;;;;;1.78;76.93;95872.59;4968820;28;20189;-69
2024/03/08 04:57:00;;;;;;;24.73;17.30;;;;;;;2.01;75.97;95864.38;4969057;28;21055;-71
2024/03/08 04:59:26;;;;;;;25.80;18.57;;;;;;;1.84;76.54;95869.88;4968812;28;20173;-70
2024/03/08 05:01:52;;;;;;;26.50;16.30;;;;;;;1.93;76.20;95867.09;4968584;28;20661;-70
2024/03/08 05:04:17;;;;;;;27.90;17.07;;;;;;;1.70;77.08;95867.53;4968969;28;20475;-70
2024/03/08 05:06:43;;;;;;;25.50;17.53;;;;;;;1.66;77.23;95868.47;4969213;28;20177;-70
2024/03/08 05:09:14;;;;;;;27.73;17.30;;;;;;;1.53;77.43;95867.81;4969194;28;20174;-69
2024/03/08 05:11:44;;;;;;;28.00;18.40;;;;;;;1.26;79.04;95874.31;4974847;28;20587;-70
2024/03/08 05:14:10;;;;;;;23.60;16.90;;;;;;;1.36;78.99;95872.44;4970472;28;20429;-69
2024/03/08 05:16:35;;;;;;;27.93;17.57;;;;;;;1.46;78.14;95869.69;4970366;28;20872;-72
2024/03/08 05:19:02;;;;;;;25.30;16.40;;;;;;;1.32;78.83;95873.34;4952599;28;20416;-69
2024/03/08 05:21:28;;;;;;;24.50;17.13;;;;;;;1.42;78.46;95874.94;4969268;28;20177;-70
2024/03/08 05:23:54;;;;;;;26.70;17.23;;;;;;;1.03;79.53;95870.34;4969070;28;20457;-71
2024/03/08 05:26:20;;;;;;;30.87;18.47;;;;;;;0.82;80.77;95873.25;4969641;28;20420;-70
2024/03/08 05:28:47;;;;;;;28.03;17.57;;;;;;;1.00;81.07;95872.13;4968754;28;20660;-69
2024/03/08 05:31:19;;;;;;;28.20;17.43;;;;;;;1.29;79.34;95868.25;4968205;28;20248;-70
2024/03/08 05:33:44;;;;;;;31.83;16.60;;;;;;;1.32;78.62;95869.03;4968442;28;21038;-71
2024/03/08 05:36:11;;;;;;;25.60;16.80;;;;;;;1.32;79.04;95873.34;4968479;28;20425;-70
2024/03/08 05:38:36;;;;;;;28.33;18.90;;;;;;;1.32;78.74;95866.44;4969118;28;20194;-71
2024/03/08 05:41:02;;;;;;;24.60;16.37;;;;;;;1.61;78.14;95865.13;4968587;28;20417;-70
2024/03/08 05:43:27;;;;;;;24.80;14.97;;;;;;;1.52;78.20;95860.09;4968455;28;20169;-70
2024/03/08 05:45:53;;;;;;;26.97;18.00;;;;;;;1.42;78.00;95872.34;4973596;28;20256;-70
2024/03/08 05:48:18;;;;;;;25.70;16.27;;;;;;;1.09;79.06;95858.19;4986444;28;20185;-70
2024/03/08 05:50:44;;;;;;;25.97;17.20;;;;;;;1.18;79.41;95864.09;4987285;28;20169;-71
2024/03/08 05:53:09;;;;;;;25.30;16.20;;;;;;;1.41;78.85;95863.72;4986232;28;20260;-72
2024/03/08 05:55:34;;;;;;;26.97;15.83;;;;;;;1.24;79.00;95858.81;4988030;28;20307;-70
2024/03/08 05:58:03;;;;;;;29.67;17.87;;;;;;;1.57;77.99;95858.28;4986452;28;20179;-71
2024/03/08 06:00:31;;;;;;;27.30;17.40;;;;;;;1.80;77.85;95855.31;4988157;28;20264;-69
2024/03/08 06:02:57;;;;;;;35.17;23.90;;;;;;;1.29;78.65;95858.75;4987890;28;21046;-71
2024/03/08 06:05:24;;;;;;;42.33;23.63;;;;;;;1.58;78.18;95854.81;4991427;28;20514;-71
2024/03/08 06:07:53;;;;;;;30.40;18.50;;;;;;;1.56;78.65;95854.84;4996426;28;20416;-70
2024/03/08 06:10:18;;;;;;;32.23;18.43;;;;;;;1.63;78.28;95855.56;4999157;28;20860;-71
2024/03/08 06:12:45;;;;;;;23.27;16.07;;;;;;;1.62;78.34;95848.72;4994212;28;20447;-70
2024/03/08 06:15:14;;;;;;;31.37;17.57;;;;;;;1.71;77.92;95851.13;4994946;28;20378;-70
2024/03/08 06:17:40;;;;;;;24.53;15.57;;;;;;;1.64;78.08;95844.38;4992118;28;20522;-69
2024/03/08 06:20:10;;;;;;;27.97;17.80;;;;;;;1.64;77.61;95857.31;4994026;28;20483;-70
2024/03/08 06:22:42;;;;;;;22.37;15.53;;;;;;;1.75;77.82;95854.50;4994564;28;20455;-74
2024/03/08 06:25:09;;;;;;;30.90;17.60;;;;;;;1.48;78.44;95860.13;4991685;28;20458;-70
2024/03/08 06:27:35;;;;;;;25.00;16.47;;;;;;;1.27;78.77;95857.91;4985519;28;20930;-70
2024/03/08 06:30:01;;;;;;;25.80;16.03;;;;;;;1.26;79.25;95864.81;4993568;28;20432;-69
2024/03/08 06:32:26;;;;;;;29.43;16.53;;;;;;;1.30;79.13;95863.06;5000542;28;20168;-68
2024/03/08 06:34:52;;;;;;;27.73;17.10;;;;;;;1.27;78.65;95866.50;5002906;28;20223;-70
2024/03/08 06:37:21;;;;;;;26.03;16.13;;;;;;;1.38;78.35;95858.59;5003634;28;20208;-70
2024/03/08 06:39:48;;;;;;;30.90;19.63;;;;;;;1.38;79.10;95874.09;5000049;28;20183;-70
2024/03/08 06:42:14;;;;;;;25.97;17.10;;;;;;;1.65;77.48;95866.75;4982718;28;20440;-69
2024/03/08 06:44:48;;;;;;;28.83;17.70;;;;;;;1.49;78.16;95861.00;4980861;28;21046;-69
2024/03/08 06:47:15;;;;;;;28.97;20.17;;;;;;;1.56;78.49;95853.97;4983964;28;20426;-69
2024/03/08 06:49:40;;;;;;;26.17;17.57;;;;;;;1.66;77.71;95850.38;4974701;28;20547;-69
2024/03/08 06:52:06;;;;;;;29.77;19.83;;;;;;;1.70;77.93;95857.16;4979252;28;20864;-69
2024/03/08 06:54:32;;;;;;;41.63;28.23;;;;;;;1.76;77.19;95864.84;4982910;28;20197;-70
2024/03/08 06:56:57;;;;;;;50.30;35.97;;;;;;;1.34;78.38;95867.28;4967503;28;20494;-70
2024/03/08 06:59:23;;;;;;;40.33;24.80;;;;;;;1.32;78.93;95866.44;4986016;28;20655;-67
2024/03/08 07:01:48;;;;;;;27.73;19.37;;;;;;;1.56;78.65;95862.63;4993646;28;20700;-67
2024/03/08 07:04:13;;;;;;;32.30;18.77;;;;;;;1.56;78.40;95853.97;4980978;28;20208;-69
2024/03/08 07:06:40;;;;;;;27.10;17.60;;;;;;;1.69;77.79;95852.91;4988003;28;20189;-70
2024/03/08 07:09:06;;;;;;;29.97;18.77;;;;;;;1.74;77.52;95851.06;4989746;28;20271;-68
2024/03/08 07:11:31;;;;;;;28.60;17.37;;;;;;;1.52;78.01;95853.19;4987131;28;20514;-69
2024/03/08 07:13:58;;;;;;;28.53;16.97;;;;;;;1.60;78.12;95853.06;4983738;28;20236;-67
2024/03/08 07:16:23;;;;;;;33.90;17.57;;;;;;;1.60;78.22;95846.13;4986668;28;20614;-70
2024/03/08 07:18:52;;;;;;;28.97;17.40;;;;;;;1.71;77.31;95845.13;4995043;28;20436;-70
2024/03/08 07:21:17;;;;;;;28.97;18.07;;;;;;;1.44;78.38;95844.69;4986657;28;20196;-70
2024/03/08 07:26:27;;;;;;;25.97;16.97;;;;;;;1.39;78.89;95839.59;4993809;28;20182;-67
2024/03/08 07:28:54;;;;;;;26.73;16.30;;;;;;;1.28;78.58;95846.72;5002612;28;20426;-69
2024/03/08 07:33:53;;;;;;;25.40;15.40;;;;;;;1.10;79.43;95849.59;5008933;28;20435;-69
2024/03/08 07:36:19;;;;;;;30.93;19.37;;;;;;;1.10;79.17;95844.41;5010196;28;20438;-68
2024/03/08 07:38:46;;;;;;;33.53;21.37;;;;;;;1.22;79.60;95834.72;4992836;28;20401;-69
2024/03/08 07:41:12;;;;;;;28.70;19.33;;;;;;;1.61;78.56;95834.94;4993313;28;20172;-67
2024/03/08 07:43:39;;;;;;;29.33;18.63;;;;;;;1.52;78.52;95829.94;5001324;28;20931;-68
2024/03/08 07:46:04;;;;;;;28.70;17.37;;;;;;;1.46;79.12;95836.06;4998645;28;20530;-70
2024/03/08 07:48:33;;;;;;;28.60;16.83;;;;;;;1.63;78.33;95829.72;4997692;28;20643;-69
2024/03/08 07:50:58;;;;;;;39.00;25.83;;;;;;;1.52;78.46;95837.69;5011496;28;20192;-68
2024/03/08 07:53:26;;;;;;;33.57;21.37;;;;;;;1.27;79.05;95852.75;5002094;28;20423;-69
2024/03/08 07:55:52;;;;;;;29.57;18.77;;;;;;;1.55;78.45;95835.03;4995425;28;20179;-69
2024/03/08 07:58:17;;;;;;;32.80;19.40;;;;;;;1.43;78.94;95827.50;5001227;28;20438;-69
2024/03/08 08:00:43;;;;;;;28.83;17.80;;;;;;;1.68;78.27;95828.78;5005801;28;20185;-68
2024/03/08 08:03:08;;;;;;;36.97;24.47;;;;;;;1.43;78.81;95838.69;4997729;28;20179;-68
2024/03/08 08:05:35;;;;;;;35.80;22.40;;;;;;;1.51;78.72;95832.53;4985372;28;20201;-68
2024/03/08 08:08:04;;;;;;;28.27;18.37;;;;;;;1.67;78.64;95819.28;5005124;28;20195;-68
2024/03/08 08:10:29;;;;;;;31.47;18.13;;;;;;;1.76;78.13;95818.28;4988052;28;20440;-69
2024/03/08 08:12:57;;;;;;;28.60;17.67;;;;;;;1.72;77.87;95823.53;4986669;28;20439;-68
2024/03/08 08:15:22;;;;;;;32.43;17.90;;;;;;;1.83;77.11;95816.44;4986813;28;20197;-69
2024/03/08 08:17:48;;;;;;;28.07;17.20;;;;;;;1.61;78.01;95818.56;4987417;28;20946;-69
2024/03/08 08:20:13;;;;;;;35.80;24.03;;;;;;;1.90;77.27;95821.44;4984558;28;20586;-68
2024/03/08 08:22:48;;;;;;;28.80;18.83;;;;;;;1.97;77.02;95803.22;4989268;28;20748;-68
2024/03/08 08:25:20;;;;;;;27.37;19.10;;;;;;;1.85;77.86;95802.56;4986206;28;20300;-69
2024/03/08 08:27:46;;;;;;;31.27;19.17;;;;;;;1.76;78.26;95802.75;4989488;28;20761;-71
2024/03/08 08:30:12;;;;;;;29.07;17.60;;;;;;;1.84;77.67;95800.00;4978055;28;20523;-69
2024/03/08 08:32:44;;;;;;;23.20;18.07;;;;;;;1.79;78.04;95804.44;4991167;28;20523;-71
2024/03/08 08:35:11;;;;;;;29.00;18.70;;;;;;;1.76;77.63;95807.09;4987340;28;20201;-71
2024/03/08 08:37:38;;;;;;;29.57;17.33;;;;;;;1.87;77.32;95798.22;4986226;28;21461;-70
2024/03/08 08:40:26;;;;;;;25.80;17.90;;;;;;;1.92;77.07;95805.06;4973280;28;20499;-69
2024/03/08 08:42:52;;;;;;;30.03;18.03;;;;;;;1.73;77.71;95799.38;4986140;28;20440;-72
2024/03/08 08:45:18;;;;;;;25.30;16.37;;;;;;;1.81;77.76;95795.75;4969344;28;20476;-69
2024/03/08 08:47:44;;;;;;;24.53;16.20;;;;;;;1.71;77.74;95786.47;4984427;28;20822;-70
2024/03/08 08:50:13;;;;;;;31.40;19.10;;;;;;;1.69;77.38;95793.41;4980949;28;20209;-70
2024/03/08 08:52:39;;;;;;;25.77;17.40;;;;;;;1.82;77.97;95794.88;4984844;28;20429;-70
2024/03/08 08:55:06;;;;;;;22.93;16.37;;;;;;;1.81;78.20;95795.75;4984673;28;20459;-71
2024/03/08 08:57:32;;;;;;;27.60;18.20;;;;;;;1.89;76.75;95788.72;4983644;28;20943;-70
2024/03/08 08:59:58;;;;;;;26.40;18.40;;;;;;;1.85;76.97;95781.03;4983337;28;21095;-70
2024/03/08 09:02:25;;;;;;;25.07;16.10;;;;;;;1.78;77.23;95790.66;4998719;28;20425;-71
2024/03/08 09:04:51;;;;;;;25.73;17.37;;;;;;;1.54;77.40;95794.56;4994303;28;20288;-71
2024/03/08 09:07:18;;;;;;;30.10;18.07;;;;;;;1.58;76.71;95790.16;4987477;28;20642;-71
2024/03/08 09:09:44;;;;;;;37.57;23.30;;;;;;;1.81;76.78;95797.50;4988725;28;20179;-70
2024/03/08 09:12:13;;;;;;;32.63;20.00;;;;;;;1.80;76.60;95788.88;4998415;28;20420;-69
2024/03/08 09:14:40;;;;;;;34.10;21.97;;;;;;;1.87;76.72;95794.81;4996894;28;20196;-69
2024/03/08 09:17:06;;;;;;;38.77;25.10;;;;;;;1.96;76.50;95776.50;5000744;28;20473;-70
2024/03/08 09:19:33;;;;;;;41.10;25.90;;;;;;;1.74;77.84;95775.22;5010602;28;20806;-69
2024/03/08 09:21:58;;;;;;;29.37;21.50;;;;;;;1.92;77.05;95776.59;4994101;28;20412;-68
2024/03/08 09:24:24;;;;;;;35.07;24.17;;;;;;;2.11;76.61;95772.75;5006003;28;20464;-72
2024/03/08 09:26:49;;;;;;;31.50;19.80;;;;;;;2.22;75.86;95768.19;5001490;28;20288;-71
2024/03/08 09:29:15;;;;;;;30.50;20.20;;;;;;;1.98;76.45;95773.88;5001320;28;20177;-70
2024/03/08 09:31:40;;;;;;;31.30;19.80;;;;;;;1.88;76.25;95779.22;4999963;28;20188;-71
2024/03/08 09:34:08;;;;;;;30.83;19.30;;;;;;;1.75;76.36;95779.50;4992991;28;20676;-72
2024/03/08 09:36:33;;;;;;;42.57;22.63;;;;;;;1.89;76.33;95777.47;4971910;28;20191;-72
2024/03/08 09:39:00;;;;;;;28.90;20.30;;;;;;;2.06;76.13;95769.41;4988080;28;20447;-71
2024/03/08 09:41:26;;;;;;;37.60;22.67;;;;;;;1.89;76.75;95772.31;4983867;28;20547;-72
2024/03/08 09:43:51;;;;;;;33.37;22.07;;;;;;;2.13;76.15;95763.22;4986186;28;20466;-71
2024/03/08 09:46:19;;;;;;;33.83;21.30;;;;;;;2.03;75.80;95769.44;4991147;28;20314;-70
2024/03/08 09:48:46;;;;;;;27.23;19.27;;;;;;;2.16;76.37;95763.13;4983169;28;20191;-72
2024/03/08 09:51:15;;;;;;;36.97;22.87;;;;;;;2.22;76.03;95759.56;4987267;28;20435;-70
2024/03/08 09:53:41;;;;;;;32.27;21.73;;;;;;;2.18;75.45;95757.94;4981343;28;20460;-70
2024/03/08 09:56:08;;;;;;;27.57;18.57;;;;;;;2.14;76.25;95757.13;4982232;28;20424;-72
2024/03/08 10:01:04;;;;;;;34.93;21.20;;;;;;;2.08;75.45;95762.47;4985667;28;20455;-72
2024/03/08 10:03:32;;;;;;;43.20;22.00;;;;;;;2.09;76.35;95756.38;4984917;28;20329;-70
2024/03/08 10:06:03;;;;;;;29.90;20.23;;;;;;;2.15;76.03;95751.09;4985561;28;20436;-74
2024/03/08 10:08:31;;;;;;;27.33;18.00;;;;;;;2.39;75.70;95754.03;4984791;28;21096;-71
2024/03/08 10:10:58;;;;;;;29.50;19.00;;;;;;;2.68;74.36;95746.44;4986215;28;20440;-72
2024/03/08 10:13:26;;;;;;;34.47;19.93;;;;;;;2.29;74.17;95761.13;4969026;28;20431;-71
2024/03/08 10:15:52;;;;;;;28.63;18.67;;;;;;;2.43;74.16;95751.31;4984050;28;20764;-70
2024/03/08 10:18:17;;;;;;;29.13;17.40;;;;;;;2.52;74.03;95747.69;4983902;28;20428;-73
2024/03/08 10:20:43;;;;;;;25.57;17.83;;;;;;;2.36;74.77;95751.50;4981740;28;20177;-72
2024/03/08 10:23:09;;;;;;;35.50;22.50;;;;;;;2.34;74.33;95738.59;4983797;28;20608;-72
2024/03/08 10:25:36;;;;;;;29.93;20.07;;;;;;;2.56;73.95;95751.91;4980921;28;20221;-73
2024/03/08 10:28:06;;;;;;;28.90;18.80;;;;;;;2.49;74.18;95727.88;4986030;28;20451;-71
2024/03/08 10:30:32;;;;;;;29.93;19.30;;;;;;;2.67;74.12;95733.50;4982066;28;20460;-71
2024/03/08 10:32:58;;;;;;;29.80;19.40;;;;;;;2.58;74.17;95731.16;4988407;28;20478;-72
2024/03/08 10:35:24;;;;;;;30.70;18.97;;;;;;;2.57;74.01;95724.25;4988522;28;20462;-73
2024/03/08 10:37:59;;;;;;;38.00;23.40;;;;;;;2.72;73.39;95729.94;4983553;28;20944;-72
2024/03/08 10:40:26;;;;;;;32.40;21.07;;;;;;;2.80;73.11;95731.50;4979235;28;20180;-73
2024/03/08 10:42:58;;;;;;;31.77;18.93;;;;;;;2.66;73.98;95735.25;4985390;28;20898;-72
2024/03/08 10:45:43;;;;;;;32.97;21.27;;;;;;;2.84;73.64;95722.75;4982235;28;20830;-72
2024/03/08 10:48:35;;;;;;;28.07;17.43;;;;;;;3.86;87.80;95723.53;4983124;28;20518;-71
2024/03/08 10:51:02;;;;;;;37.07;22.17;;;;;;;3.18;72.45;95725.34;4982622;28;20440;-72
2024/03/08 10:53:32;;;;;;;35.20;20.37;;;;;;;3.43;72.21;95722.97;4981446;28;20512;-72
2024/03/08 10:55:57;;;;;;;33.67;19.90;;;;;;;3.42;72.47;95730.78;4981308;28;21170;-71
2024/03/08 10:58:28;;;;;;;26.60;18.30;;;;;;;3.07;73.36;95728.22;4979027;28;20438;-72
2024/03/08 11:00:57;;;;;;;30.33;20.40;;;;;;;3.05;73.40;95730.00;4984778;28;20543;-73
2024/03/08 11:03:43;;;;;;;27.60;19.27;;;;;;;3.11;73.53;95723.81;4983355;28;20489;-72
2024/03/08 11:06:15;;;;;;;38.30;24.10;;;;;;;3.05;73.91;95721.34;4979689;28;20458;-72
2024/03/08 11:08:40;;;;;;;29.63;18.37;;;;;;;3.26;72.67;95723.41;4982102;28;20438;-73
2024/03/08 11:11:27;;;;;;;28.20;18.30;;;;;;;3.43;71.55;95715.19;4979382;28;20845;-73
2024/03/08 11:13:52;;;;;;;40.40;24.63;;;;;;;3.35;71.84;95709.34;4985160;28;20187;-72
2024/03/08 11:16:27;;;;;;;32.60;21.23;;;;;;;3.68;70.59;95710.16;4978833;28;20951;-73
2024/03/08 11:19:19;;;;;;;38.03;26.17;;;;;;;3.58;70.36;95706.97;4981671;28;20747;-72
2024/03/08 11:21:45;;;;;;;41.17;27.93;;;;;;;3.81;69.84;95703.75;4978932;28;20455;-72
2024/03/08 11:24:13;;;;;;;43.90;29.30;;;;;;;3.38;70.37;95696.31;4980177;28;20456;-73
2024/03/08 11:26:39;;;;;;;43.63;29.63;;;;;;;4.00;69.98;95688.47;4982075;28;20184;-73
2024/03/08 11:29:35;;;;;;;27.33;17.93;;;;;;;3.97;69.71;95683.38;4991401;28;20461;-72
2024/03/08 11:32:12;;;;;;;31.10;15.73;;;;;;;3.74;69.22;95684.03;4981479;28;20420;-73